sensor_id;sensor_type;location;lat;lon;timestamp;pressure;altitude;pressure_sealevel;temperature;humidity
63654;BME280;49809;47.418;19.080;2024-02-26T00:03:31;99723.56;;;8.53;100.00
63654;BME280;49809;47.418;19.080;2024-02-26T00:06:55;99729.41;;;8.55;100.00
63654;BME280;49809;47.418;19.080;2024-02-26T00:14:02;99715.00;;;8.36;100.00
63654;BME280;49809;47.418;19.080;2024-02-26T00:25:14;99701.28;;;8.39;100.00
63654;BME280;49809;47.418;19.080;2024-02-26T00:29:01;99703.94;;;8.39;100.00
63654;BME280;49809;47.418;19.080;2024-02-26T00:32:35;99690.22;;;8.37;100.00
63654;BME280;49809;47.418;19.080;2024-02-26T00:36:01;99701.75;;;8.31;100.00
63654;BME280;49809;47.418;19.080;2024-02-26T00:51:00;99700.62;;;8.26;100.00
63654;BME280;49809;47.418;19.080;2024-02-26T00:58:14;99692.19;;;8.24;100.00
63654;BME280;49809;47.418;19.080;2024-02-26T02:10:54;99647.16;;;8.04;100.00
63654;BME280;49809;47.418;19.080;2024-02-26T02:14:29;99648.28;;;8.08;100.00
63654;BME280;49809;47.418;19.080;2024-02-26T02:21:44;99661.16;;;8.05;100.00
63654;BME280;49809;47.418;19.080;2024-02-26T02:25:19;99662.19;;;8.04;100.00
63654;BME280;49809;47.418;19.080;2024-02-26T06:42:26;99652.38;;;8.58;100.00
63654;BME280;49809;47.418;19.080;2024-02-26T07:18:53;99653.28;;;9.26;100.00
63654;BME280;49809;47.418;19.080;2024-02-26T07:22:14;99655.72;;;9.37;100.00
63654;BME280;49809;47.418;19.080;2024-02-26T07:25:51;99652.34;;;9.52;100.00
63654;BME280;49809;47.418;19.080;2024-02-26T07:30:05;99655.00;;;9.57;100.00
63654;BME280;49809;47.418;19.080;2024-02-26T07:34:01;99667.69;;;9.60;100.00
63654;BME280;49809;47.418;19.080;2024-02-26T07:38:10;99664.03;;;9.76;100.00
63654;BME280;49809;47.418;19.080;2024-02-26T07:41:33;99669.94;;;10.24;100.00
63654;BME280;49809;47.418;19.080;2024-02-26T07:45:43;99672.03;;;10.12;100.00
63654;BME280;49809;47.418;19.080;2024-02-26T07:49:10;99668.91;;;10.40;100.00
63654;BME280;49809;47.418;19.080;2024-02-26T07:53:19;99661.22;;;10.18;100.00
63654;BME280;49809;47.418;19.080;2024-02-26T07:56:25;99670.44;;;10.81;100.00
63654;BME280;49809;47.418;19.080;2024-02-26T07:59:52;99678.91;;;10.88;100.00
63654;BME280;49809;47.418;19.080;2024-02-26T08:03:43;99685.25;;;10.93;100.00
63654;BME280;49809;47.418;19.080;2024-02-26T08:07:15;99683.38;;;11.03;100.00
63654;BME280;49809;47.418;19.080;2024-02-26T08:10:46;99674.88;;;11.11;100.00
63654;BME280;49809;47.418;19.080;2024-02-26T08:14:14;99674.72;;;11.52;100.00
63654;BME280;49809;47.418;19.080;2024-02-26T08:17:49;99683.53;;;11.42;100.00
63654;BME280;49809;47.418;19.080;2024-02-26T08:21:53;99693.47;;;11.65;100.00
63654;BME280;49809;47.418;19.080;2024-02-26T08:25:01;99694.41;;;11.95;100.00
63654;BME280;49809;47.418;19.080;2024-02-26T08:28:15;99693.28;;;12.01;100.00
63654;BME280;49809;47.418;19.080;2024-02-26T08:31:24;99685.78;;;11.74;100.00
63654;BME280;49809;47.418;19.080;2024-02-26T08:34:29;99685.94;;;11.93;100.00
63654;BME280;49809;47.418;19.080;2024-02-26T08:37:57;99689.63;;;11.92;100.00
63654;BME280;49809;47.418;19.080;2024-02-26T08:41:38;99690.81;;;11.70;100.00
63654;BME280;49809;47.418;19.080;2024-02-26T08:45:14;99693.84;;;11.98;100.00
63654;BME280;49809;47.418;19.080;2024-02-26T08:48:18;99698.78;;;11.75;100.00
63654;BME280;49809;47.418;19.080;2024-02-26T08:51:28;99699.41;;;11.47;100.00
63654;BME280;49809;47.418;19.080;2024-02-26T08:54:54;99696.13;;;11.65;100.00
63654;BME280;49809;47.418;19.080;2024-02-26T08:58:03;99692.94;;;11.68;100.00
63654;BME280;49809;47.418;19.080;2024-02-26T09:01:08;99688.00;;;11.47;100.00
63654;BME280;49809;47.418;19.080;2024-02-26T09:04:37;99687.72;;;11.48;100.00
63654;BME280;49809;47.418;19.080;2024-02-26T09:08:27;99694.09;;;11.47;100.00
63654;BME280;49809;47.418;19.080;2024-02-26T09:12:09;99691.16;;;11.49;100.00
63654;BME280;49809;47.418;19.080;2024-02-26T09:16:04;99700.88;;;11.79;100.00
63654;BME280;49809;47.418;19.080;2024-02-26T09:19:16;99699.56;;;11.66;100.00
63654;BME280;49809;47.418;19.080;2024-02-26T09:22:43;99702.94;;;11.82;100.00
63654;BME280;49809;47.418;19.080;2024-02-26T09:26:21;99699.00;;;11.79;100.00
63654;BME280;49809;47.418;19.080;2024-02-26T09:30:04;99709.81;;;11.88;100.00
63654;BME280;49809;47.418;19.080;2024-02-26T09:33:36;99713.38;;;12.17;100.00
63654;BME280;49809;47.418;19.080;2024-02-26T09:36:43;99700.59;;;12.58;100.00
63654;BME280;49809;47.418;19.080;2024-02-26T09:40:18;99697.09;;;12.62;100.00
63654;BME280;49809;47.418;19.080;2024-02-26T09:43:45;99706.78;;;13.06;100.00
63654;BME280;49809;47.418;19.080;2024-02-26T09:47:12;99704.91;;;13.12;98.62
63654;BME280;49809;47.418;19.080;2024-02-26T09:50:57;99711.75;;;12.84;97.00
63654;BME280;49809;47.418;19.080;2024-02-26T09:54:37;99709.41;;;13.11;96.82
63654;BME280;49809;47.418;19.080;2024-02-26T09:57:46;99704.72;;;12.98;96.39
63654;BME280;49809;47.418;19.080;2024-02-26T10:00:56;99718.97;;;12.78;96.85
63654;BME280;49809;47.418;19.080;2024-02-26T10:04:31;99712.28;;;12.23;100.00
63654;BME280;49809;47.418;19.080;2024-02-26T10:07:34;99719.28;;;12.77;97.87
63654;BME280;49809;47.418;19.080;2024-02-26T10:10:39;99711.31;;;12.77;98.30
63654;BME280;49809;47.418;19.080;2024-02-26T10:14:06;99712.34;;;12.81;98.59
63654;BME280;49809;47.418;19.080;2024-02-26T10:17:13;99715.78;;;13.10;95.31
63654;BME280;49809;47.418;19.080;2024-02-26T10:20:36;99706.31;;;12.99;95.51
63654;BME280;49809;47.418;19.080;2024-02-26T10:24:21;99712.41;;;12.99;96.63
63654;BME280;49809;47.418;19.080;2024-02-26T10:28:00;99700.28;;;13.65;94.17
63654;BME280;49809;47.418;19.080;2024-02-26T10:31:05;99700.66;;;13.96;92.99
63654;BME280;49809;47.418;19.080;2024-02-26T10:34:08;99696.91;;;14.34;90.42
63654;BME280;49809;47.418;19.080;2024-02-26T10:37:16;99707.62;;;14.48;89.61
63654;BME280;49809;47.418;19.080;2024-02-26T10:40:58;99709.25;;;14.62;91.01
63654;BME280;49809;47.418;19.080;2024-02-26T10:44:22;99699.62;;;14.48;87.60
63654;BME280;49809;47.418;19.080;2024-02-26T10:47:45;99685.84;;;14.27;92.60
63654;BME280;49809;47.418;19.080;2024-02-26T10:50:55;99681.00;;;14.80;84.63
63654;BME280;49809;47.418;19.080;2024-02-26T10:54:26;99678.94;;;14.58;85.21
63654;BME280;49809;47.418;19.080;2024-02-26T10:57:52;99676.13;;;14.82;85.75
63654;BME280;49809;47.418;19.080;2024-02-26T11:01:19;99670.84;;;14.96;84.43
63654;BME280;49809;47.418;19.080;2024-02-26T11:05:12;99666.41;;;15.18;83.21
63654;BME280;49809;47.418;19.080;2024-02-26T11:08:18;99665.13;;;15.02;83.68
63654;BME280;49809;47.418;19.080;2024-02-26T11:11:23;99670.12;;;15.72;81.22
63654;BME280;49809;47.418;19.080;2024-02-26T11:14:30;99672.94;;;15.89;80.81
63654;BME280;49809;47.418;19.080;2024-02-26T11:17:36;99664.97;;;16.12;80.39
63654;BME280;49809;47.418;19.080;2024-02-26T11:20:48;99663.16;;;16.21;77.93
63654;BME280;49809;47.418;19.080;2024-02-26T11:23:52;99661.50;;;16.33;78.37
63654;BME280;49809;47.418;19.080;2024-02-26T11:26:59;99660.78;;;16.64;76.44
63654;BME280;49809;47.418;19.080;2024-02-26T11:30:10;99665.78;;;16.87;75.24
63654;BME280;49809;47.418;19.080;2024-02-26T11:33:15;99660.00;;;16.41;75.76
63654;BME280;49809;47.418;19.080;2024-02-26T11:36:20;99662.00;;;16.88;73.45
63654;BME280;49809;47.418;19.080;2024-02-26T11:39:24;99662.34;;;16.95;71.53
63654;BME280;49809;47.418;19.080;2024-02-26T11:42:30;99660.22;;;17.15;68.46
63654;BME280;49809;47.418;19.080;2024-02-26T11:48:43;99653.28;;;17.14;71.12
63654;BME280;49809;47.418;19.080;2024-02-26T11:51:50;99667.59;;;16.56;74.92
63654;BME280;49809;47.418;19.080;2024-02-26T11:54:57;99663.50;;;16.72;73.34
63654;BME280;49809;47.418;19.080;2024-02-26T11:58:01;99666.03;;;15.88;75.12
63654;BME280;49809;47.418;19.080;2024-02-26T12:01:05;99672.19;;;16.78;71.84
63654;BME280;49809;47.418;19.080;2024-02-26T12:04:26;99671.31;;;15.66;77.46
63654;BME280;49809;47.418;19.080;2024-02-26T12:07:29;99667.94;;;16.85;73.04
63654;BME280;49809;47.418;19.080;2024-02-26T12:10:36;99669.22;;;16.35;74.16
63654;BME280;49809;47.418;19.080;2024-02-26T12:13:47;99671.88;;;16.13;74.82
63654;BME280;49809;47.418;19.080;2024-02-26T12:16:56;99658.50;;;15.90;74.98
63654;BME280;49809;47.418;19.080;2024-02-26T12:20:10;99659.19;;;16.18;74.62
63654;BME280;49809;47.418;19.080;2024-02-26T12:23:19;99661.94;;;16.04;73.71
63654;BME280;49809;47.418;19.080;2024-02-26T12:26:27;99660.56;;;14.89;78.60
63654;BME280;49809;47.418;19.080;2024-02-26T12:29:33;99659.88;;;14.97;79.43
63654;BME280;49809;47.418;19.080;2024-02-26T12:32:38;99654.34;;;15.07;80.62
63654;BME280;49809;47.418;19.080;2024-02-26T12:35:44;99663.50;;;15.70;77.30
63654;BME280;49809;47.418;19.080;2024-02-26T12:38:51;99652.88;;;15.92;76.71
63654;BME280;49809;47.418;19.080;2024-02-26T12:41:54;99655.22;;;16.07;74.85
63654;BME280;49809;47.418;19.080;2024-02-26T12:44:57;99651.16;;;15.60;77.61
63654;BME280;49809;47.418;19.080;2024-02-26T12:48:00;99649.16;;;15.79;76.40
63654;BME280;49809;47.418;19.080;2024-02-26T12:51:04;99644.59;;;16.16;75.82
63654;BME280;49809;47.418;19.080;2024-02-26T12:54:16;99650.75;;;16.02;76.82
63654;BME280;49809;47.418;19.080;2024-02-26T12:57:20;99631.22;;;16.60;73.47
63654;BME280;49809;47.418;19.080;2024-02-26T13:00:27;99630.34;;;16.51;72.54
63654;BME280;49809;47.418;19.080;2024-02-26T13:03:34;99637.88;;;16.27;73.24
63654;BME280;49809;47.418;19.080;2024-02-26T13:06:39;99631.44;;;16.50;71.45
63654;BME280;49809;47.418;19.080;2024-02-26T13:09:44;99644.28;;;16.70;71.61
63654;BME280;49809;47.418;19.080;2024-02-26T13:12:54;99643.97;;;16.63;70.46
63654;BME280;49809;47.418;19.080;2024-02-26T13:16:05;99641.31;;;16.41;70.20
63654;BME280;49809;47.418;19.080;2024-02-26T13:19:14;99644.34;;;16.26;72.26
63654;BME280;49809;47.418;19.080;2024-02-26T13:22:21;99643.81;;;16.46;71.47
63654;BME280;49809;47.418;19.080;2024-02-26T13:25:29;99641.38;;;15.69;75.78
63654;BME280;49809;47.418;19.080;2024-02-26T13:28:36;99638.00;;;16.22;73.11
63654;BME280;49809;47.418;19.080;2024-02-26T13:31:39;99640.81;;;15.94;74.66
63654;BME280;49809;47.418;19.080;2024-02-26T13:34:49;99635.28;;;16.88;70.81
63654;BME280;49809;47.418;19.080;2024-02-26T13:37:52;99643.31;;;16.97;68.07
63654;BME280;49809;47.418;19.080;2024-02-26T13:40:58;99633.28;;;16.63;70.22
63654;BME280;49809;47.418;19.080;2024-02-26T13:44:01;99643.50;;;17.01;69.19
63654;BME280;49809;47.418;19.080;2024-02-26T13:47:06;99641.78;;;16.65;69.85
63654;BME280;49809;47.418;19.080;2024-02-26T13:50:13;99637.41;;;16.02;71.24
63654;BME280;49809;47.418;19.080;2024-02-26T13:53:15;99650.34;;;16.09;72.18
63654;BME280;49809;47.418;19.080;2024-02-26T13:56:21;99645.06;;;16.40;69.27
63654;BME280;49809;47.418;19.080;2024-02-26T13:59:28;99642.75;;;16.25;70.23
63654;BME280;49809;47.418;19.080;2024-02-26T14:02:36;99637.72;;;16.01;70.43
63654;BME280;49809;47.418;19.080;2024-02-26T14:05:44;99638.13;;;15.94;70.62
63654;BME280;49809;47.418;19.080;2024-02-26T14:09:26;99635.56;;;15.40;72.85
63654;BME280;49809;47.418;19.080;2024-02-26T14:12:46;99622.13;;;15.45;72.33
63654;BME280;49809;47.418;19.080;2024-02-26T14:16:33;99620.87;;;15.29;74.13
63654;BME280;49809;47.418;19.080;2024-02-26T14:20:17;99623.41;;;15.47;73.37
63654;BME280;49809;47.418;19.080;2024-02-26T14:23:42;99626.63;;;15.08;75.48
63654;BME280;49809;47.418;19.080;2024-02-26T14:27:12;99622.84;;;14.82;77.25
63654;BME280;49809;47.418;19.080;2024-02-26T14:30:45;99627.87;;;14.70;77.13
63654;BME280;49809;47.418;19.080;2024-02-26T14:33:49;99632.97;;;14.53;78.07
63654;BME280;49809;47.418;19.080;2024-02-26T14:36:56;99626.31;;;14.69;77.09
63654;BME280;49809;47.418;19.080;2024-02-26T14:39:59;99621.88;;;14.78;77.43
63654;BME280;49809;47.418;19.080;2024-02-26T14:43:02;99623.88;;;14.86;77.36
63654;BME280;49809;47.418;19.080;2024-02-26T14:46:09;99629.19;;;14.86;77.36
63654;BME280;49809;47.418;19.080;2024-02-26T14:49:12;99624.81;;;14.76;78.57
63654;BME280;49809;47.418;19.080;2024-02-26T14:52:19;99630.72;;;14.60;79.07
63654;BME280;49809;47.418;19.080;2024-02-26T14:55:24;99626.38;;;14.50;78.76
63654;BME280;49809;47.418;19.080;2024-02-26T14:58:28;99630.03;;;14.54;78.35
63654;BME280;49809;47.418;19.080;2024-02-26T15:01:30;99626.87;;;14.33;79.80
63654;BME280;49809;47.418;19.080;2024-02-26T15:04:33;99635.13;;;14.18;81.14
63654;BME280;49809;47.418;19.080;2024-02-26T15:07:38;99626.84;;;14.20;81.21
63654;BME280;49809;47.418;19.080;2024-02-26T15:10:44;99633.13;;;14.10;81.41
63654;BME280;49809;47.418;19.080;2024-02-26T15:13:53;99643.00;;;13.91;83.06
63654;BME280;49809;47.418;19.080;2024-02-26T15:16:57;99642.22;;;13.72;84.99
63654;BME280;49809;47.418;19.080;2024-02-26T15:20:06;99650.25;;;13.67;84.97
63654;BME280;49809;47.418;19.080;2024-02-26T15:23:15;99649.16;;;13.49;86.60
63654;BME280;49809;47.418;19.080;2024-02-26T15:26:20;99656.31;;;13.30;88.35
63654;BME280;49809;47.418;19.080;2024-02-26T15:29:46;99655.88;;;13.23;88.12
63654;BME280;49809;47.418;19.080;2024-02-26T15:32:50;99654.94;;;13.08;89.13
63654;BME280;49809;47.418;19.080;2024-02-26T15:35:55;99658.84;;;12.92;89.82
63654;BME280;49809;47.418;19.080;2024-02-26T15:39:07;99649.13;;;12.83;90.70
63654;BME280;49809;47.418;19.080;2024-02-26T15:42:11;99653.00;;;12.67;91.56
63654;BME280;49809;47.418;19.080;2024-02-26T15:45:24;99660.03;;;12.52;93.00
63654;BME280;49809;47.418;19.080;2024-02-26T15:48:57;99663.88;;;12.36;94.04
63654;BME280;49809;47.418;19.080;2024-02-26T15:52:02;99670.88;;;12.22;94.85
63654;BME280;49809;47.418;19.080;2024-02-26T15:55:11;99669.09;;;12.12;95.58
63654;BME280;49809;47.418;19.080;2024-02-26T15:58:47;99676.31;;;12.02;96.39
63654;BME280;49809;47.418;19.080;2024-02-26T16:02:27;99678.00;;;11.88;96.28
63654;BME280;49809;47.418;19.080;2024-02-26T16:05:35;99670.12;;;11.72;96.94
63654;BME280;49809;47.418;19.080;2024-02-26T16:08:45;99669.12;;;11.58;97.48
63654;BME280;49809;47.418;19.080;2024-02-26T16:12:04;99669.47;;;11.42;98.20
63654;BME280;49809;47.418;19.080;2024-02-26T16:15:12;99677.47;;;11.26;99.21
63654;BME280;49809;47.418;19.080;2024-02-26T16:18:15;99675.13;;;11.10;100.00
63654;BME280;49809;47.418;19.080;2024-02-26T16:21:30;99681.78;;;10.97;100.00
63654;BME280;49809;47.418;19.080;2024-02-26T16:24:38;99688.72;;;10.83;100.00
63654;BME280;49809;47.418;19.080;2024-02-26T16:27:42;99686.31;;;10.71;100.00
63654;BME280;49809;47.418;19.080;2024-02-26T16:31:10;99688.72;;;10.58;100.00
63654;BME280;49809;47.418;19.080;2024-02-26T16:34:57;99695.34;;;10.45;100.00
63654;BME280;49809;47.418;19.080;2024-02-26T16:38:43;99706.19;;;10.33;100.00
63654;BME280;49809;47.418;19.080;2024-02-26T16:42:46;99716.22;;;10.16;100.00
63654;BME280;49809;47.418;19.080;2024-02-26T16:46:59;99720.91;;;9.99;100.00
63654;BME280;49809;47.418;19.080;2024-02-26T16:50:38;99726.94;;;9.79;100.00
63654;BME280;49809;47.418;19.080;2024-02-26T16:54:21;99730.62;;;9.68;100.00
63654;BME280;49809;47.418;19.080;2024-02-26T16:58:58;99734.53;;;9.60;100.00
63654;BME280;49809;47.418;19.080;2024-02-26T17:06:57;99736.84;;;9.42;100.00
63654;BME280;49809;47.418;19.080;2024-02-26T17:19:32;99747.31;;;9.27;100.00
63654;BME280;49809;47.418;19.080;2024-02-26T17:23:01;99749.16;;;9.26;100.00
63654;BME280;49809;47.418;19.080;2024-02-26T17:26:35;99746.47;;;9.21;100.00
63654;BME280;49809;47.418;19.080;2024-02-26T17:30:30;99755.16;;;9.16;100.00
63654;BME280;49809;47.418;19.080;2024-02-26T17:33:35;99755.66;;;9.08;100.00
63654;BME280;49809;47.418;19.080;2024-02-26T17:37:03;99759.81;;;8.99;100.00
63654;BME280;49809;47.418;19.080;2024-02-26T17:44:37;99769.75;;;8.87;100.00
63654;BME280;49809;47.418;19.080;2024-02-26T17:47:46;99768.12;;;8.81;100.00
63654;BME280;49809;47.418;19.080;2024-02-26T17:51:18;99772.87;;;8.79;100.00
63654;BME280;49809;47.418;19.080;2024-02-26T17:54:54;99781.06;;;8.83;100.00
63654;BME280;49809;47.418;19.080;2024-02-26T18:02:03;99778.03;;;9.01;100.00
63654;BME280;49809;47.418;19.080;2024-02-26T18:05:14;99783.91;;;9.08;100.00
63654;BME280;49809;47.418;19.080;2024-02-26T18:08:22;99785.78;;;9.12;100.00
63654;BME280;49809;47.418;19.080;2024-02-26T18:11:30;99790.06;;;9.19;100.00
63654;BME280;49809;47.418;19.080;2024-02-26T18:19:32;99791.94;;;9.23;100.00
63654;BME280;49809;47.418;19.080;2024-02-26T18:22:36;99794.00;;;9.21;100.00
63654;BME280;49809;47.418;19.080;2024-02-26T18:26:02;99787.41;;;9.19;100.00
63654;BME280;49809;47.418;19.080;2024-02-26T18:33:08;99793.94;;;9.11;100.00
63654;BME280;49809;47.418;19.080;2024-02-26T18:36:12;99790.97;;;9.02;100.00
63654;BME280;49809;47.418;19.080;2024-02-26T18:43:41;99792.41;;;8.83;100.00
63654;BME280;49809;47.418;19.080;2024-02-26T18:46:45;99790.78;;;8.77;100.00
63654;BME280;49809;47.418;19.080;2024-02-26T18:49:50;99806.56;;;8.72;100.00
63654;BME280;49809;47.418;19.080;2024-02-26T18:52:57;99798.06;;;8.65;100.00
63654;BME280;49809;47.418;19.080;2024-02-26T18:56:09;99795.84;;;8.52;100.00
63654;BME280;49809;47.418;19.080;2024-02-26T18:59:13;99803.16;;;8.45;100.00
63654;BME280;49809;47.418;19.080;2024-02-26T19:02:39;99796.75;;;8.36;100.00
63654;BME280;49809;47.418;19.080;2024-02-26T19:06:18;99800.84;;;8.26;100.00
63654;BME280;49809;47.418;19.080;2024-02-26T19:13:40;99801.88;;;8.04;100.00
63654;BME280;49809;47.418;19.080;2024-02-26T19:16:49;99812.56;;;7.92;100.00
63654;BME280;49809;47.418;19.080;2024-02-26T19:19:52;99814.03;;;7.83;100.00
63654;BME280;49809;47.418;19.080;2024-02-26T19:22:56;99816.03;;;7.76;100.00
63654;BME280;49809;47.418;19.080;2024-02-26T19:26:05;99819.19;;;7.73;100.00
63654;BME280;49809;47.418;19.080;2024-02-26T19:29:16;99819.84;;;7.63;100.00
63654;BME280;49809;47.418;19.080;2024-02-26T19:32:42;99831.66;;;7.61;100.00
63654;BME280;49809;47.418;19.080;2024-02-26T19:35:51;99835.75;;;7.52;100.00
63654;BME280;49809;47.418;19.080;2024-02-26T19:39:06;99848.81;;;7.47;100.00
63654;BME280;49809;47.418;19.080;2024-02-26T19:42:13;99851.47;;;7.47;100.00
63654;BME280;49809;47.418;19.080;2024-02-26T19:45:24;99852.25;;;7.47;100.00
63654;BME280;49809;47.418;19.080;2024-02-26T19:48:46;99855.63;;;7.42;100.00
63654;BME280;49809;47.418;19.080;2024-02-26T19:51:50;99856.56;;;7.36;100.00
63654;BME280;49809;47.418;19.080;2024-02-26T19:55:00;99858.97;;;7.38;100.00
63654;BME280;49809;47.418;19.080;2024-02-26T19:58:08;99852.75;;;7.44;100.00
63654;BME280;49809;47.418;19.080;2024-02-26T20:01:16;99857.13;;;7.55;100.00
63654;BME280;49809;47.418;19.080;2024-02-26T20:08:32;99860.69;;;7.66;100.00
63654;BME280;49809;47.418;19.080;2024-02-26T20:16:04;99861.78;;;7.70;100.00
63654;BME280;49809;47.418;19.080;2024-02-26T20:19:12;99863.47;;;7.76;100.00
63654;BME280;49809;47.418;19.080;2024-02-26T20:22:15;99867.47;;;7.78;100.00
63654;BME280;49809;47.418;19.080;2024-02-26T20:25:20;99866.16;;;7.81;100.00
63654;BME280;49809;47.418;19.080;2024-02-26T20:28:23;99866.16;;;7.81;100.00
63654;BME280;49809;47.418;19.080;2024-02-26T20:31:26;99874.38;;;7.84;100.00
63654;BME280;49809;47.418;19.080;2024-02-26T20:34:32;99875.19;;;7.85;100.00
63654;BME280;49809;47.418;19.080;2024-02-26T20:37:40;99873.72;;;7.94;100.00
63654;BME280;49809;47.418;19.080;2024-02-26T20:40:46;99878.31;;;8.04;100.00
63654;BME280;49809;47.418;19.080;2024-02-26T20:43:53;99880.50;;;8.07;100.00
63654;BME280;49809;47.418;19.080;2024-02-26T20:47:17;99886.63;;;8.12;100.00
63654;BME280;49809;47.418;19.080;2024-02-26T20:50:23;99900.97;;;8.21;100.00
63654;BME280;49809;47.418;19.080;2024-02-26T20:53:29;99897.09;;;8.29;100.00
63654;BME280;49809;47.418;19.080;2024-02-26T20:56:56;99895.41;;;8.40;100.00
63654;BME280;49809;47.418;19.080;2024-02-26T21:00:03;99910.72;;;8.43;100.00
63654;BME280;49809;47.418;19.080;2024-02-26T21:03:35;99910.78;;;8.48;100.00
63654;BME280;49809;47.418;19.080;2024-02-26T21:07:31;99905.03;;;8.51;100.00
63654;BME280;49809;47.418;19.080;2024-02-26T21:10:42;99913.25;;;8.54;100.00
63654;BME280;49809;47.418;19.080;2024-02-26T21:13:49;99922.03;;;8.60;100.00
63654;BME280;49809;47.418;19.080;2024-02-26T21:17:06;99924.47;;;8.66;100.00
63654;BME280;49809;47.418;19.080;2024-02-26T21:20:12;99940.22;;;8.83;100.00
63654;BME280;49809;47.418;19.080;2024-02-26T21:23:20;99952.88;;;9.08;100.00
63654;BME280;49809;47.418;19.080;2024-02-26T21:26:26;99942.31;;;9.08;100.00
63654;BME280;49809;47.418;19.080;2024-02-26T21:29:33;99954.75;;;9.12;100.00
63654;BME280;49809;47.418;19.080;2024-02-26T21:32:59;99964.81;;;9.15;100.00
63654;BME280;49809;47.418;19.080;2024-02-26T21:36:07;99960.66;;;9.20;100.00
63654;BME280;49809;47.418;19.080;2024-02-26T21:39:39;99955.16;;;9.26;100.00
63654;BME280;49809;47.418;19.080;2024-02-26T21:43:01;99958.06;;;9.30;100.00
63654;BME280;49809;47.418;19.080;2024-02-26T21:51:17;99945.91;;;9.24;100.00
63654;BME280;49809;47.418;19.080;2024-02-26T21:54:47;99947.87;;;9.11;100.00
63654;BME280;49809;47.418;19.080;2024-02-26T21:57:51;99951.72;;;8.99;100.00
63654;BME280;49809;47.418;19.080;2024-02-26T22:01:00;99957.16;;;8.87;100.00
63654;BME280;49809;47.418;19.080;2024-02-26T22:04:29;99954.94;;;8.79;100.00
63654;BME280;49809;47.418;19.080;2024-02-26T22:07:55;99958.34;;;8.75;100.00
63654;BME280;49809;47.418;19.080;2024-02-26T22:11:41;99946.91;;;8.69;100.00
63654;BME280;49809;47.418;19.080;2024-02-26T22:15:10;99942.56;;;8.58;100.00
63654;BME280;49809;47.418;19.080;2024-02-26T22:18:36;99952.66;;;8.61;100.00
63654;BME280;49809;47.418;19.080;2024-02-26T22:22:02;99947.84;;;8.58;100.00
63654;BME280;49809;47.418;19.080;2024-02-26T22:25:39;99952.50;;;8.72;100.00
63654;BME280;49809;47.418;19.080;2024-02-26T22:29:11;99953.44;;;8.61;100.00
63654;BME280;49809;47.418;19.080;2024-02-26T22:32:47;99957.28;;;8.54;100.00
63654;BME280;49809;47.418;19.080;2024-02-26T22:36:11;99952.41;;;8.41;100.00
63654;BME280;49809;47.418;19.080;2024-02-26T22:43:35;99960.84;;;8.43;100.00
63654;BME280;49809;47.418;19.080;2024-02-26T22:47:08;99973.06;;;8.49;100.00
63654;BME280;49809;47.418;19.080;2024-02-26T22:50:17;99975.22;;;8.52;100.00
63654;BME280;49809;47.418;19.080;2024-02-26T22:53:24;99976.31;;;8.56;100.00
63654;BME280;49809;47.418;19.080;2024-02-26T22:56:29;99974.28;;;8.63;100.00
63654;BME280;49809;47.418;19.080;2024-02-26T22:59:31;99969.06;;;8.68;100.00
63654;BME280;49809;47.418;19.080;2024-02-26T23:02:58;99974.16;;;8.75;100.00
63654;BME280;49809;47.418;19.080;2024-02-26T23:10:29;99982.75;;;8.87;100.00
63654;BME280;49809;47.418;19.080;2024-02-26T23:14:02;99996.78;;;8.92;100.00
63654;BME280;49809;47.418;19.080;2024-02-26T23:17:47;100006.37;;;8.98;100.00
63654;BME280;49809;47.418;19.080;2024-02-26T23:21:31;100003.16;;;8.96;100.00
63654;BME280;49809;47.418;19.080;2024-02-26T23:25:13;99998.69;;;8.97;100.00
63654;BME280;49809;47.418;19.080;2024-02-26T23:28:28;100015.25;;;8.92;100.00
63654;BME280;49809;47.418;19.080;2024-02-26T23:31:31;100006.25;;;8.88;100.00
63654;BME280;49809;47.418;19.080;2024-02-26T23:34:37;100004.53;;;8.77;100.00
63654;BME280;49809;47.418;19.080;2024-02-26T23:37:48;100011.91;;;8.75;100.00
63654;BME280;49809;47.418;19.080;2024-02-26T23:40:54;100002.91;;;8.71;100.00
63654;BME280;49809;47.418;19.080;2024-02-26T23:43:58;99996.94;;;8.59;100.00
63654;BME280;49809;47.418;19.080;2024-02-26T23:47:04;100006.81;;;8.47;100.00
63654;BME280;49809;47.418;19.080;2024-02-26T23:50:46;100002.50;;;8.41;100.00
63654;BME280;49809;47.418;19.080;2024-02-26T23:53:55;100011.78;;;8.26;100.00
63654;BME280;49809;47.418;19.080;2024-02-26T23:57:02;100010.91;;;8.21;100.00
